Brighton — 2ANQ9 — position and weather

sailwx.info

Track history (hours):
 
Tides and Currents Weather Stations Pressure Air Temp Water Temp Dewpoint Dewpoint Depression Visibility Wind Speed Wind Dir Waves Ship Positions

Brighton

Last reported at 2018-Feb-15 04:00 UTC. Time now 2018-Feb-21 01:56 UTC.
Position N 34°58' E 140°28'.

Length 293 m; draft 12.5 m.

Type: Cargo ship. MMSI: 235061354.

Date/timePositionNaut miles runAvg speedWind from/ knotsBaromVisibWave heightAir tempDewpointWater temp
2018-Feb-15 04:00N 34°58' E 140°28'915.9
2018-Feb-15 03:28N 34°55' E 140°18'816.4
2018-Feb-15 03:00N 34°52' E 140°09'815.6
2018-Feb-15 02:30N 34°49' E 140°00'714.6
2018-Feb-15 02:00N 34°46' E 139°53'814.9
2018-Feb-15 01:30N 34°43' E 139°44'915.2
2018-Feb-15 00:55N 34°39' E 139°35'716.3
2018-Feb-15 00:29N 34°37' E 139°26'715.4
2018-Feb-15 00:00N 34°35' E 139°18'815.6
2018-Feb-14 23:30N 34°32' E 139°09'815.4
2018-Feb-14 23:00N 34°29' E 139°01'815.4
2018-Feb-14 22:28N 34°24' E 138°52'815.9
2018-Feb-14 22:00N 34°21' E 138°44'816.1
2018-Feb-14 21:30N 34°17' E 138°36'815.8
2018-Feb-14 20:59N 34°13' E 138°27'715.3
2018-Feb-14 20:30N 34°10' E 138°19'814.8
2018-Feb-14 19:57N 34°06' E 138°10'714.2
2018-Feb-14 19:28N 34°03' E 138°03'  
2018-Feb-11 21:08N 25°29' E 121°14'312.3
2018-Feb-11 20:54N 25°28' E 121°11'512.6
2018-Feb-11 20:30N 25°25' E 121°07'713.0
2018-Feb-11 20:00N 25°20' E 121°01'613.2
2018-Feb-11 19:30N 25°16' E 120°56'713.4
2018-Feb-11 19:00N 25°11' E 120°51'1613.8
2018-Feb-11 17:50N 24°57' E 120°42'8012.2
2018-Feb-11 11:17N 23°48' E 119°57'412.7
2018-Feb-11 10:57N 23°44' E 119°56'613.1
2018-Feb-11 10:30N 23°38' E 119°55'713.5
2018-Feb-11 10:01N 23°32' E 119°55'713.6
2018-Feb-11 09:30N 23°25' E 119°54'713.8
2018-Feb-11 09:00N 23°18' E 119°53'713.6
2018-Feb-11 08:30N 23°11' E 119°52'713.3
2018-Feb-11 08:00N 23°04' E 119°52'713.7
2018-Feb-11 07:30N 22°58' E 119°54'714.0
2018-Feb-11 07:00N 22°52' E 119°57'714.6
2018-Feb-11 06:30N 22°45' E 120°00'815.2
2018-Feb-11 06:00N 22°39' E 120°05'715.0
2018-Feb-11 05:30N 22°33' E 120°11'713.8
2018-Feb-11 05:00N 22°33' E 120°18'1 2.0
2018-Feb-11 04:30N 22°34' E 120°19'1 1.1
2018-Feb-11 03:58N 22°34' E 120°19'0 0.0
2018-Feb-11 03:28N 22°34' E 120°19'0 0.0
2018-Feb-11 02:55N 22°34' E 120°19'0 0.0
2018-Feb-11 02:28N 22°34' E 120°19'0 0.0
2018-Feb-11 01:58N 22°34' E 120°19'0 0.0
2018-Feb-11 01:28N 22°34' E 120°19'0 0.0
2018-Feb-11 00:58N 22°34' E 120°19'0 0.0
2018-Feb-11 00:28N 22°34' E 120°19'0 0.0
2018-Feb-10 23:58N 22°34' E 120°19'0 0.0
2018-Feb-10 23:28N 22°34' E 120°19'0 0.0
2018-Feb-10 22:58N 22°34' E 120°19'0 0.0
2018-Feb-10 22:28N 22°34' E 120°19'0 0.0
2018-Feb-10 21:58N 22°34' E 120°19'0 0.0
2018-Feb-10 21:28N 22°34' E 120°19'0 0.0
2018-Feb-10 20:58N 22°34' E 120°19'0 0.0
2018-Feb-10 20:28N 22°34' E 120°19'0 0.0
2018-Feb-10 19:58N 22°34' E 120°19'0 0.0
2018-Feb-10 19:31N 22°34' E 120°19'0 0.0
2018-Feb-10 18:58N 22°34' E 120°19'0 0.0
2018-Feb-10 18:28N 22°34' E 120°19'0 0.0
2018-Feb-10 17:58N 22°34' E 120°19'0 0.1
2018-Feb-10 17:30N 22°34' E 120°19'1 2.4
2018-Feb-10 17:00N 22°33' E 120°18'3 5.6
2018-Feb-10 16:30N 22°32' E 120°15'0 0.4
2018-Feb-10 16:01N 22°32' E 120°16'3 6.3
2018-Feb-10 15:30N 22°31' E 120°12'5 9.4
2018-Feb-10 15:01N 22°30' E 120°08'5 8.9
2018-Feb-10 14:30N 22°29' E 120°03'5 9.9
2018-Feb-10 14:00N 22°29' E 119°57'5 9.9
2018-Feb-10 13:30N 22°28' E 119°52'612.6
2018-Feb-10 13:00N 22°26' E 119°45'  
2018-Feb-07 21:17N 22°21' E 114°07'  
2018-Feb-05 04:27N 22°30' E 119°51'614.0
2018-Feb-05 04:00N 22°31' E 119°57'  
Track history (hours):
 
Tides and Currents Weather Stations Pressure Air Temp Water Temp Dewpoint Dewpoint Depression Visibility Wind Speed Wind Dir Waves Ship Positions

Brighton

Last reported at 2018-Feb-15 04:00 UTC. Time now 2018-Feb-21 01:56 UTC.
Position N 34°58' E 140°28'.

Length 293 m; draft 12.5 m.

Type: Cargo ship. MMSI: 235061354.

Date/timePositionNaut miles runAvg speedWind from/ knotsBaromVisibWave heightAir tempDewpointWater temp
2018-Feb-15 04:00N 34°58' E 140°28'915.9
2018-Feb-15 03:28N 34°55' E 140°18'816.4
2018-Feb-15 03:00N 34°52' E 140°09'815.6
2018-Feb-15 02:30N 34°49' E 140°00'714.6
2018-Feb-15 02:00N 34°46' E 139°53'814.9
2018-Feb-15 01:30N 34°43' E 139°44'915.2
2018-Feb-15 00:55N 34°39' E 139°35'716.3
2018-Feb-15 00:29N 34°37' E 139°26'715.4
2018-Feb-15 00:00N 34°35' E 139°18'815.6
2018-Feb-14 23:30N 34°32' E 139°09'815.4
2018-Feb-14 23:00N 34°29' E 139°01'815.4
2018-Feb-14 22:28N 34°24' E 138°52'815.9
2018-Feb-14 22:00N 34°21' E 138°44'816.1
2018-Feb-14 21:30N 34°17' E 138°36'815.8
2018-Feb-14 20:59N 34°13' E 138°27'715.3
2018-Feb-14 20:30N 34°10' E 138°19'814.8
2018-Feb-14 19:57N 34°06' E 138°10'714.2
2018-Feb-14 19:28N 34°03' E 138°03'  
2018-Feb-11 21:08N 25°29' E 121°14'312.3
2018-Feb-11 20:54N 25°28' E 121°11'512.6
2018-Feb-11 20:30N 25°25' E 121°07'713.0
2018-Feb-11 20:00N 25°20' E 121°01'613.2
2018-Feb-11 19:30N 25°16' E 120°56'713.4
2018-Feb-11 19:00N 25°11' E 120°51'1613.8
2018-Feb-11 17:50N 24°57' E 120°42'8012.2
2018-Feb-11 11:17N 23°48' E 119°57'412.7
2018-Feb-11 10:57N 23°44' E 119°56'613.1
2018-Feb-11 10:30N 23°38' E 119°55'713.5
2018-Feb-11 10:01N 23°32' E 119°55'713.6
2018-Feb-11 09:30N 23°25' E 119°54'713.8
2018-Feb-11 09:00N 23°18' E 119°53'713.6
2018-Feb-11 08:30N 23°11' E 119°52'713.3
2018-Feb-11 08:00N 23°04' E 119°52'713.7
2018-Feb-11 07:30N 22°58' E 119°54'714.0
2018-Feb-11 07:00N 22°52' E 119°57'714.6
2018-Feb-11 06:30N 22°45' E 120°00'815.2
2018-Feb-11 06:00N 22°39' E 120°05'715.0
2018-Feb-11 05:30N 22°33' E 120°11'713.8
2018-Feb-11 05:00N 22°33' E 120°18'1 2.0
2018-Feb-11 04:30N 22°34' E 120°19'1 1.1
2018-Feb-11 03:58N 22°34' E 120°19'0 0.0
2018-Feb-11 03:28N 22°34' E 120°19'0 0.0
2018-Feb-11 02:55N 22°34' E 120°19'0 0.0
2018-Feb-11 02:28N 22°34' E 120°19'0 0.0
2018-Feb-11 01:58N 22°34' E 120°19'0 0.0
2018-Feb-11 01:28N 22°34' E 120°19'0 0.0
2018-Feb-11 00:58N 22°34' E 120°19'0 0.0
2018-Feb-11 00:28N 22°34' E 120°19'0 0.0
2018-Feb-10 23:58N 22°34' E 120°19'0 0.0
2018-Feb-10 23:28N 22°34' E 120°19'0 0.0
2018-Feb-10 22:58N 22°34' E 120°19'0 0.0
2018-Feb-10 22:28N 22°34' E 120°19'0 0.0
2018-Feb-10 21:58N 22°34' E 120°19'0 0.0
2018-Feb-10 21:28N 22°34' E 120°19'0 0.0
2018-Feb-10 20:58N 22°34' E 120°19'0 0.0
2018-Feb-10 20:28N 22°34' E 120°19'0 0.0
2018-Feb-10 19:58N 22°34' E 120°19'0 0.0
2018-Feb-10 19:31N 22°34' E 120°19'0 0.0
2018-Feb-10 18:58N 22°34' E 120°19'0 0.0
2018-Feb-10 18:28N 22°34' E 120°19'0 0.0
2018-Feb-10 17:58N 22°34' E 120°19'0 0.1
2018-Feb-10 17:30N 22°34' E 120°19'1 2.4
2018-Feb-10 17:00N 22°33' E 120°18'3 5.6
2018-Feb-10 16:30N 22°32' E 120°15'0 0.4
2018-Feb-10 16:01N 22°32' E 120°16'3 6.3
2018-Feb-10 15:30N 22°31' E 120°12'5 9.4
2018-Feb-10 15:01N 22°30' E 120°08'5 8.9
2018-Feb-10 14:30N 22°29' E 120°03'5 9.9
2018-Feb-10 14:00N 22°29' E 119°57'5 9.9
2018-Feb-10 13:30N 22°28' E 119°52'612.6
2018-Feb-10 13:00N 22°26' E 119°45'  
2018-Feb-07 21:17N 22°21' E 114°07'  
2018-Feb-05 04:27N 22°30' E 119°51'614.0
2018-Feb-05 04:00N 22°31' E 119°57'  

Dump ship's entire track history